Time;durP1;ratioP1;P1;durP2;ratioP2;P2;SDS_P1;SDS_P2;PMS_P1;PMS_P2;Temp;Humidity;BMP_temperature;BMP_pressure;BME280_temperature;BME280_humidity;BME280_pressure;Samples;Min_cycle;Max_cycle;Signal;HPM_P1;HPM_P2
2022/12/07 00:01:51;;;;;;;14.20;4.43;;;1.20;99.90;;;;;;5048608;28;20044;-56
2022/12/07 00:04:18;;;;;;;20.70;4.43;;;1.20;99.90;;;;;;5049360;28;20685;-56
2022/12/07 00:06:47;;;;;;;17.88;5.28;;;1.20;99.90;;;;;;5049027;28;20041;-57
2022/12/07 00:09:16;;;;;;;18.65;4.82;;;1.20;99.90;;;;;;5049209;28;20160;-56
2022/12/07 00:11:42;;;;;;;16.23;4.30;;;1.10;99.90;;;;;;5048780;28;20048;-56
2022/12/07 00:14:12;;;;;;;17.20;4.55;;;1.00;99.90;;;;;;5047381;28;20045;-56
2022/12/07 00:16:37;;;;;;;16.60;3.55;;;1.10;99.90;;;;;;5048541;28;20070;-56
2022/12/07 00:19:04;;;;;;;15.48;3.65;;;1.00;99.90;;;;;;5063966;28;20147;-56
2022/12/07 00:21:32;;;;;;;9.43;2.58;;;1.00;99.90;;;;;;5048806;28;20099;-56
2022/12/07 00:23:59;;;;;;;10.82;2.60;;;1.20;99.90;;;;;;5048415;28;20041;-56
2022/12/07 00:26:34;;;;;;;13.40;2.20;;;1.30;99.90;;;;;;5047758;28;20399;-56
2022/12/07 00:29:03;;;;;;;11.45;1.90;;;1.30;99.90;;;;;;5048734;28;20131;-56
2022/12/07 00:31:33;;;;;;;12.13;2.58;;;1.30;99.90;;;;;;5048668;28;20145;-56
2022/12/07 00:33:59;;;;;;;8.75;1.90;;;1.30;99.90;;;;;;5064089;28;20041;-56
2022/12/07 00:36:25;;;;;;;11.55;1.60;;;1.30;99.90;;;;;;5064130;28;20041;-56
2022/12/07 00:38:51;;;;;;;5.80;1.45;;;1.30;99.90;;;;;;5048934;28;20418;-56
2022/12/07 00:41:19;;;;;;;16.67;2.08;;;1.20;99.90;;;;;;5048224;28;20060;-56
2022/12/07 00:43:47;;;;;;;11.18;1.25;;;1.20;99.90;;;;;;5048165;28;20064;-56
2022/12/07 00:46:13;;;;;;;11.55;0.93;;;1.20;99.90;;;;;;5046993;28;20053;-56
2022/12/07 00:48:39;;;;;;;11.45;1.17;;;1.30;99.90;;;;;;5048617;28;20041;-55
2022/12/07 00:51:06;;;;;;;11.90;1.20;;;1.20;99.90;;;;;;5048135;28;20041;-56
2022/12/07 00:53:35;;;;;;;10.82;1.13;;;1.30;99.90;;;;;;5048525;28;20048;-56
2022/12/07 00:56:16;;;;;;;9.18;1.38;;;1.00;99.90;;;;;;5046965;28;20434;-55
2022/12/07 00:58:42;;;;;;;8.35;1.05;;;1.10;99.90;;;;;;5048517;28;20044;-56
2022/12/07 01:01:09;;;;;;;13.30;1.10;;;1.10;99.90;;;;;;5047762;28;20045;-56
2022/12/07 01:03:35;;;;;;;8.93;1.65;;;1.30;99.90;;;;;;5048585;28;20132;-56
2022/12/07 01:06:03;;;;;;;9.32;0.85;;;1.10;99.90;;;;;;5048214;28;20147;-56
2022/12/07 01:08:30;;;;;;;7.82;0.85;;;1.00;99.90;;;;;;5048202;28;20152;-56
2022/12/07 01:11:05;;;;;;;7.72;0.80;;;0.90;99.90;;;;;;5046469;28;20513;-56
2022/12/07 01:13:32;;;;;;;9.93;0.90;;;0.90;99.90;;;;;;5063034;28;20064;-56
2022/12/07 01:16:00;;;;;;;14.20;1.00;;;0.90;99.90;;;;;;5047590;28;20043;-56
2022/12/07 01:18:30;;;;;;;15.07;1.27;;;0.90;99.90;;;;;;5048383;28;20037;-56
2022/12/07 01:21:04;;;;;;;15.40;1.17;;;0.90;99.90;;;;;;5046614;28;20053;-56
2022/12/07 01:23:30;;;;;;;5.97;0.80;;;1.00;99.90;;;;;;5048119;28;20043;-56
2022/12/07 01:26:02;;;;;;;5.30;1.02;;;0.90;99.90;;;;;;5047879;28;20043;-56
2022/12/07 01:28:28;;;;;;;15.35;2.40;;;1.00;99.90;;;;;;5063423;28;20037;-56
2022/12/07 01:30:59;;;;;;;10.93;1.23;;;1.10;99.90;;;;;;5047539;28;20095;-56
2022/12/07 01:33:28;;;;;;;7.43;1.27;;;1.20;99.90;;;;;;5047987;28;20045;-56
2022/12/07 01:35:54;;;;;;;7.95;1.23;;;1.30;99.90;;;;;;5063554;28;20048;-56
2022/12/07 01:38:19;;;;;;;16.65;1.63;;;1.30;99.90;;;;;;5030544;28;20044;-56
2022/12/07 01:40:45;;;;;;;9.50;1.30;;;1.30;99.90;;;;;;5048273;28;20494;-56
2022/12/07 01:43:17;;;;;;;7.75;0.88;;;1.20;99.90;;;;;;5047789;28;20110;-56
2022/12/07 01:45:43;;;;;;;11.65;1.50;;;1.10;99.90;;;;;;5047737;28;20037;-56
2022/12/07 01:48:13;;;;;;;12.32;1.00;;;1.10;99.90;;;;;;5047478;28;20037;-56
2022/12/07 01:50:40;;;;;;;8.25;1.08;;;1.00;99.90;;;;;;5047570;28;20578;-56
2022/12/07 01:53:09;;;;;;;8.70;1.40;;;1.00;99.90;;;;;;5045895;28;20916;-56
2022/12/07 01:55:38;;;;;;;10.52;1.00;;;0.90;99.90;;;;;;5047408;28;20045;-56
2022/12/07 01:58:04;;;;;;;11.60;1.02;;;0.90;99.90;;;;;;5047441;28;20446;-56
2022/12/07 02:00:30;;;;;;;12.93;1.33;;;0.90;99.90;;;;;;5047197;28;20056;-57
2022/12/07 02:03:02;;;;;;;8.43;0.93;;;0.80;99.90;;;;;;5047103;28;20110;-56
2022/12/07 02:05:28;;;;;;;;;;;0.70;99.90;;;;;;5063429;28;20087;-57
2022/12/07 02:07:56;;;;;;;5.82;0.80;;;0.70;99.90;;;;;;5047195;28;19960;-56
2022/12/07 02:10:27;;;;;;;7.70;0.68;;;0.80;99.90;;;;;;5047834;28;20037;-56
2022/12/07 02:13:07;;;;;;;10.98;0.75;;;0.90;99.90;;;;;;5062830;28;20124;-56
2022/12/07 02:16:10;;;;;;;5.40;0.73;;;1.20;99.90;;;;;;5047148;28;20433;-55
2022/12/07 02:18:57;;;;;;;7.32;0.52;;;1.40;99.90;;;;;;5047285;28;20497;-56
2022/12/07 02:21:40;;;;;;;8.48;1.60;;;1.60;99.90;;;;;;5047317;28;20052;-56
2022/12/07 02:24:11;;;;;;;9.45;0.60;;;1.70;99.90;;;;;;5047131;28;20053;-56
2022/12/07 02:26:58;;;;;;;12.30;0.63;;;1.90;99.90;;;;;;5046936;28;20131;-56
2022/12/07 02:29:36;;;;;;;7.65;1.27;;;1.90;99.90;;;;;;5046696;28;20052;-56
2022/12/07 02:32:10;;;;;;;8.50;0.43;;;2.00;99.90;;;;;;5061530;28;20380;-56
2022/12/07 02:35:17;;;;;;;8.02;0.52;;;2.10;99.90;;;;;;5046828;28;20053;-56
2022/12/07 02:37:57;;;;;;;3.67;0.40;;;2.10;99.90;;;;;;5045252;28;20483;-56
2022/12/07 02:40:42;;;;;;;5.93;0.90;;;1.90;99.90;;;;;;5045689;28;20075;-56
2022/12/07 02:43:17;;;;;;;13.98;0.85;;;1.80;99.90;;;;;;5046530;28;20041;-56
2022/12/07 02:45:45;;;;;;;5.30;0.60;;;1.60;99.90;;;;;;5047025;28;20120;-56
2022/12/07 02:48:14;;;;;;;5.93;0.40;;;1.40;99.90;;;;;;5044922;28;20077;-57
2022/12/07 02:50:54;;;;;;;6.82;0.80;;;1.40;99.90;;;;;;5046414;28;20059;-56
2022/12/07 02:53:38;;;;;;;10.65;0.30;;;1.30;99.90;;;;;;5046348;28;20506;-56
2022/12/07 02:56:12;;;;;;;17.02;2.42;;;1.10;99.90;;;;;;5045082;28;20045;-56
2022/12/07 02:58:51;;;;;;;11.02;0.68;;;1.10;99.90;;;;;;5045545;28;20049;-56
2022/12/07 03:01:34;;;;;;;9.27;0.47;;;1.10;99.90;;;;;;5046868;28;20084;-56
2022/12/07 03:04:33;;;;;;;10.57;0.55;;;1.20;99.90;;;;;;5047244;28;20045;-56
2022/12/07 03:07:15;;;;;;;6.05;0.60;;;1.10;99.90;;;;;;5045247;28;20053;-56
2022/12/07 03:10:07;;;;;;;11.20;0.77;;;1.10;99.90;;;;;;5047086;28;20402;-56
2022/12/07 03:12:43;;;;;;;8.23;0.55;;;0.90;99.90;;;;;;5045762;28;20068;-56
2022/12/07 03:15:20;;;;;;;13.50;0.57;;;1.10;99.90;;;;;;5046844;28;20106;-56
2022/12/07 03:17:47;;;;;;;12.38;0.88;;;1.10;99.90;;;;;;5046492;28;20474;-57
2022/12/07 03:20:15;;;;;;;14.27;0.40;;;1.20;99.90;;;;;;5046501;28;20044;-56
2022/12/07 03:22:43;;;;;;;9.52;0.50;;;1.30;99.90;;;;;;5046620;28;20390;-56
2022/12/07 03:25:14;;;;;;;5.55;0.63;;;1.40;99.90;;;;;;5048252;28;20041;-56
2022/12/07 03:27:49;;;;;;;12.20;1.23;;;1.50;99.90;;;;;;5050742;28;20103;-56
2022/12/07 03:30:22;;;;;;;3.17;0.50;;;1.70;99.90;;;;;;5048906;28;20055;-56
2022/12/07 03:33:03;;;;;;;;;;;2.10;99.90;;;;;;5050417;28;20063;-57
2022/12/07 03:35:35;;;;;;;11.57;0.43;;;1.90;99.90;;;;;;5050249;28;19940;-57
2022/12/07 03:38:18;;;;;;;4.45;0.22;;;2.00;99.90;;;;;;5049824;28;20041;-57
2022/12/07 03:41:21;;;;;;;8.65;0.65;;;2.10;99.90;;;;;;5048719;28;20186;-57
2022/12/07 03:43:47;;;;;;;7.30;0.28;;;2.10;99.90;;;;;;5049646;28;20403;-57
2022/12/07 03:46:15;;;;;;;5.82;0.38;;;2.40;99.90;;;;;;5049893;28;20052;-57
2022/12/07 03:48:55;;;;;;;8.38;0.32;;;2.10;99.90;;;;;;5048623;28;20047;-56
2022/12/07 03:51:38;;;;;;;5.60;0.57;;;2.20;99.90;;;;;;5048302;28;20081;-57
2022/12/07 03:54:23;;;;;;;9.02;0.32;;;2.20;99.90;;;;;;5049783;28;20048;-57
2022/12/07 03:56:50;;;;;;;6.32;0.40;;;2.10;99.90;;;;;;5049947;28;20040;-57
2022/12/07 03:59:17;;;;;;;7.72;0.68;;;2.10;99.90;;;;;;5049606;28;20137;-57
2022/12/07 04:01:52;;;;;;;10.00;0.60;;;2.20;99.90;;;;;;5049471;28;20044;-57
2022/12/07 04:04:17;;;;;;;6.35;0.25;;;2.30;99.90;;;;;;5049333;28;20045;-57
2022/12/07 04:06:43;;;;;;;9.82;0.40;;;2.30;99.90;;;;;;5047642;28;20056;-57
2022/12/07 04:09:09;;;;;;;5.55;0.20;;;2.30;99.90;;;;;;5048908;28;20045;-56
2022/12/07 04:11:34;;;;;;;12.70;0.73;;;2.40;99.90;;;;;;5047497;28;20048;-56
2022/12/07 04:14:18;;;;;;;7.30;0.40;;;2.80;99.90;;;;;;5049015;28;20048;-56
2022/12/07 04:16:57;;;;;;;5.30;0.32;;;2.40;99.90;;;;;;5049245;28;20044;-56
2022/12/07 04:19:25;;;;;;;8.55;0.75;;;2.30;99.90;;;;;;5047823;28;20049;-56
2022/12/07 04:21:50;;;;;;;5.15;0.32;;;2.30;99.90;;;;;;5049234;28;20087;-56
2022/12/07 04:24:17;;;;;;;6.53;0.57;;;2.20;99.90;;;;;;5048758;28;20068;-56
2022/12/07 04:26:43;;;;;;;8.73;0.77;;;2.20;99.90;;;;;;5049203;28;20104;-56
2022/12/07 04:29:10;;;;;;;6.60;0.30;;;2.10;99.90;;;;;;5048711;28;20479;-56
2022/12/07 04:31:36;;;;;;;8.15;0.30;;;2.10;99.90;;;;;;5048210;28;20122;-56
2022/12/07 04:34:03;;;;;;;9.13;0.38;;;2.00;99.90;;;;;;5048945;28;20063;-56
2022/12/07 04:36:29;;;;;;;6.38;0.75;;;1.90;99.90;;;;;;5048874;28;20067;-56
2022/12/07 04:38:55;;;;;;;8.93;1.25;;;1.90;99.90;;;;;;5049272;28;20041;-56
2022/12/07 04:41:28;;;;;;;8.93;1.85;;;1.90;99.90;;;;;;5048989;28;20419;-56
2022/12/07 04:44:02;;;;;;;9.25;0.40;;;1.80;99.90;;;;;;5048622;28;20052;-56
2022/12/07 04:46:29;;;;;;;6.00;0.22;;;1.60;99.90;;;;;;5048508;28;20045;-56
2022/12/07 04:48:55;;;;;;;9.77;0.40;;;1.50;99.90;;;;;;5048500;28;20462;-56
2022/12/07 04:51:24;;;;;;;10.52;0.35;;;1.40;99.90;;;;;;5048290;28;20049;-56
2022/12/07 04:53:50;;;;;;;9.27;0.45;;;1.30;99.90;;;;;;5063410;28;20761;-56
2022/12/07 04:56:17;;;;;;;8.00;0.50;;;1.20;99.90;;;;;;5048271;28;20608;-55
2022/12/07 04:58:44;;;;;;;11.90;0.47;;;1.20;99.90;;;;;;5047933;28;20540;-56
2022/12/07 05:01:10;;;;;;;10.57;0.40;;;1.10;99.90;;;;;;5048384;28;20044;-56
2022/12/07 05:03:37;;;;;;;10.88;1.10;;;1.10;99.90;;;;;;5048333;28;20485;-56
2022/12/07 05:06:03;;;;;;;10.73;0.50;;;1.10;99.90;;;;;;5048866;28;20040;-56
2022/12/07 05:08:29;;;;;;;8.07;0.50;;;1.10;99.90;;;;;;5048156;28;20558;-56
2022/12/07 05:10:55;;;;;;;7.32;0.40;;;1.10;99.90;;;;;;5047040;28;20056;-56
2022/12/07 05:13:20;;;;;;;3.13;0.20;;;1.30;99.90;;;;;;5048321;28;20551;-56
2022/12/07 05:15:49;;;;;;;12.00;0.80;;;1.30;99.90;;;;;;5048104;28;20041;-56
2022/12/07 05:18:15;;;;;;;9.43;0.50;;;1.40;99.90;;;;;;5046834;28;20646;-56
2022/12/07 05:20:42;;;;;;;9.70;0.95;;;1.50;99.90;;;;;;5047686;28;20051;-56
2022/12/07 05:23:08;;;;;;;9.52;0.30;;;1.60;99.90;;;;;;5047881;28;20047;-56
2022/12/07 05:25:34;;;;;;;7.93;0.50;;;1.70;99.90;;;;;;5047519;28;20046;-56
2022/12/07 05:27:59;;;;;;;6.82;0.40;;;1.60;99.90;;;;;;5047602;28;20047;-56
2022/12/07 05:30:26;;;;;;;8.38;0.40;;;3.40;99.90;;;;;;5047156;28;20047;-56
2022/12/07 05:32:52;;;;;;;7.00;0.50;;;1.50;99.90;;;;;;5047229;28;20059;-56
2022/12/07 05:35:18;;;;;;;7.60;0.45;;;1.40;99.90;;;;;;5045016;28;20045;-56
2022/12/07 05:37:45;;;;;;;9.20;0.50;;;1.20;99.90;;;;;;5046073;28;20037;-58
2022/12/07 05:40:11;;;;;;;9.25;0.93;;;1.20;99.90;;;;;;5047040;28;20056;-56
2022/12/07 05:42:37;;;;;;;9.68;0.55;;;1.00;99.90;;;;;;5046643;28;20490;-56
2022/12/07 05:45:03;;;;;;;14.45;0.85;;;0.90;99.90;;;;;;5047220;28;20052;-56
2022/12/07 05:47:29;;;;;;;4.30;0.73;;;0.90;99.90;;;;;;5046497;28;20055;-56
2022/12/07 05:49:55;;;;;;;5.38;0.20;;;0.80;99.90;;;;;;5047542;28;20379;-56
2022/12/07 05:52:21;;;;;;;9.00;0.30;;;0.60;99.90;;;;;;5047708;28;20045;-56
2022/12/07 05:54:47;;;;;;;11.05;0.60;;;0.60;99.90;;;;;;5047096;28;20194;-57
2022/12/07 05:57:12;;;;;;;10.27;0.45;;;0.50;99.90;;;;;;5047467;28;20052;-56
2022/12/07 05:59:38;;;;;;;8.43;0.50;;;0.50;99.90;;;;;;5045819;28;20043;-56
2022/12/07 06:02:07;;;;;;;11.02;0.50;;;0.60;99.90;;;;;;5046180;28;20379;-57
2022/12/07 06:04:37;;;;;;;15.68;1.10;;;0.50;99.90;;;;;;5045878;28;20584;-56
2022/12/07 06:07:03;;;;;;;5.30;0.15;;;0.50;99.90;;;;;;5047215;28;20133;-56
2022/12/07 06:09:29;;;;;;;9.77;0.80;;;0.50;99.90;;;;;;5047044;28;20068;-56
2022/12/07 06:14:40;;;;;;;8.05;0.88;;;0.40;99.90;;;;;;5047225;28;20048;-56
2022/12/07 06:17:06;;;;;;;9.30;0.60;;;0.40;99.90;;;;;;5047104;28;20768;-57
2022/12/07 06:19:32;;;;;;;9.43;0.50;;;0.30;99.90;;;;;;5046099;28;20149;-56
2022/12/07 06:21:58;;;;;;;7.30;0.32;;;0.20;99.90;;;;;;5047447;28;20179;-56
2022/12/07 06:24:23;;;;;;;3.65;0.30;;;0.20;99.90;;;;;;5047577;28;20044;-56
2022/12/07 06:26:49;;;;;;;9.57;1.48;;;0.10;99.90;;;;;;5046268;28;20047;-56
2022/12/07 06:29:19;;;;;;;10.93;0.60;;;0.10;99.90;;;;;;5047584;28;20044;-56
2022/12/07 06:31:45;;;;;;;11.07;1.42;;;0.10;99.90;;;;;;5045906;28;20087;-56
2022/12/07 06:34:14;;;;;;;8.27;0.32;;;0.00;99.90;;;;;;5047260;28;20053;-56
2022/12/07 06:36:39;;;;;;;7.05;0.65;;;-0.20;99.90;;;;;;5047197;28;20455;-56
2022/12/07 06:39:08;;;;;;;11.63;0.52;;;-0.10;99.90;;;;;;5047406;28;20092;-56
2022/12/07 06:41:36;;;;;;;7.90;0.73;;;0.00;99.90;;;;;;5047266;28;20597;-56
2022/12/07 06:44:01;;;;;;;6.25;0.47;;;0.00;99.90;;;;;;5047552;28;20045;-56
2022/12/07 06:46:27;;;;;;;4.93;0.30;;;0.10;99.90;;;;;;5047295;28;20120;-56
2022/12/07 06:48:53;;;;;;;9.50;0.63;;;0.20;99.90;;;;;;5047086;28;20041;-56
2022/12/07 06:51:18;;;;;;;10.05;1.08;;;0.30;99.90;;;;;;5047415;28;20708;-56
2022/12/07 06:53:44;;;;;;;16.08;1.95;;;0.30;99.90;;;;;;5047149;28;20052;-56
2022/12/07 06:56:10;;;;;;;8.90;1.15;;;0.40;99.90;;;;;;5045960;28;20049;-56
2022/12/07 06:58:36;;;;;;;10.20;0.60;;;0.60;99.90;;;;;;5046869;28;20052;-56
2022/12/07 07:01:02;;;;;;;9.20;1.25;;;0.70;99.90;;;;;;5050087;28;20669;-57
2022/12/07 07:03:28;;;;;;;13.02;1.27;;;0.80;99.90;;;;;;5050607;28;20048;-57
2022/12/07 07:05:54;;;;;;;13.55;0.90;;;0.80;99.90;;;;;;5051007;28;20455;-56
2022/12/07 07:08:19;;;;;;;10.38;0.63;;;0.80;99.90;;;;;;5050610;28;20048;-56
2022/12/07 07:10:45;;;;;;;4.90;0.50;;;0.70;99.90;;;;;;5050433;28;20041;-56
2022/12/07 07:13:11;;;;;;;9.65;1.27;;;0.70;99.90;;;;;;5050582;28;20073;-56
2022/12/07 07:15:37;;;;;;;9.00;0.77;;;0.60;99.90;;;;;;5049386;28;20131;-56
2022/12/07 07:18:03;;;;;;;10.27;0.50;;;0.50;99.90;;;;;;5050435;28;20044;-56
2022/12/07 07:20:29;;;;;;;9.38;0.80;;;0.50;99.90;;;;;;5050575;28;20813;-56
2022/12/07 07:22:55;;;;;;;9.52;0.45;;;1.00;99.90;;;;;;5050242;28;20040;-55
2022/12/07 07:25:21;;;;;;;12.93;0.90;;;0.40;99.90;;;;;;5050267;28;20139;-56
2022/12/07 07:27:46;;;;;;;13.98;0.77;;;0.30;99.90;;;;;;5050232;28;20075;-56
2022/12/07 07:30:12;;;;;;;8.70;0.60;;;0.30;99.90;;;;;;5050450;28;20051;-55
2022/12/07 07:32:38;;;;;;;9.07;0.70;;;0.30;99.90;;;;;;5048596;28;20178;-55
2022/12/07 07:35:04;;;;;;;12.27;1.08;;;0.20;99.90;;;;;;5049816;28;20067;-56
2022/12/07 07:37:30;;;;;;;9.38;0.65;;;0.30;99.90;;;;;;5050270;28;20140;-56
2022/12/07 07:39:56;;;;;;;11.07;1.02;;;0.30;99.90;;;;;;5048716;28;20124;-56
2022/12/07 07:42:22;;;;;;;9.80;0.50;;;0.40;99.90;;;;;;5050409;28;20459;-56
2022/12/07 07:44:47;;;;;;;7.90;0.50;;;0.50;99.90;;;;;;5049987;28;20080;-56
2022/12/07 07:47:13;;;;;;;6.90;0.55;;;0.70;99.90;;;;;;5050371;28;20044;-55
2022/12/07 07:49:39;;;;;;;10.05;0.77;;;0.90;99.90;;;;;;5049901;28;20094;-56
2022/12/07 07:52:06;;;;;;;10.00;0.43;;;1.10;99.90;;;;;;5049859;28;20053;-56
2022/12/07 07:54:31;;;;;;;13.05;0.93;;;1.20;99.90;;;;;;5049913;28;20055;-56
2022/12/07 07:56:57;;;;;;;5.93;1.25;;;1.30;99.90;;;;;;5048400;28;20044;-56
2022/12/07 07:59:23;;;;;;;11.15;2.22;;;1.30;99.90;;;;;;5049834;28;20041;-57
2022/12/07 08:01:48;;;;;;;7.88;0.60;;;1.40;99.90;;;;;;5049380;28;20052;-57
2022/12/07 08:04:14;;;;;;;13.18;1.00;;;1.50;99.90;;;;;;5049381;28;20106;-57
2022/12/07 08:06:41;;;;;;;7.70;0.77;;;1.60;99.90;;;;;;5049373;28;20059;-57
2022/12/07 08:09:08;;;;;;;10.95;0.52;;;1.60;99.90;;;;;;5047576;28;20041;-56
2022/12/07 08:11:34;;;;;;;12.82;1.05;;;1.60;99.90;;;;;;5047359;28;20159;-56
2022/12/07 08:14:00;;;;;;;8.50;0.60;;;1.60;99.90;;;;;;5049136;28;20041;-56
2022/12/07 08:16:25;;;;;;;8.25;0.60;;;1.70;99.90;;;;;;5064617;28;20037;-56
2022/12/07 08:18:51;;;;;;;8.23;0.65;;;1.70;99.90;;;;;;5047780;28;20041;-56
2022/12/07 08:21:17;;;;;;;9.98;0.60;;;1.80;99.90;;;;;;5049383;28;20422;-56
2022/12/07 08:23:43;;;;;;;11.68;1.80;;;1.70;99.90;;;;;;5049149;28;20045;-56
2022/12/07 08:26:11;;;;;;;7.28;0.85;;;1.60;99.90;;;;;;5048899;28;20045;-56
2022/12/07 08:28:37;;;;;;;7.13;0.60;;;1.60;99.90;;;;;;5049149;28;20048;-56
2022/12/07 08:31:06;;;;;;;7.15;1.10;;;1.50;99.90;;;;;;5048286;28;20045;-56
2022/12/07 08:33:32;;;;;;;11.13;0.70;;;1.40;99.90;;;;;;5046855;28;20065;-56
2022/12/07 08:36:06;;;;;;;7.85;0.60;;;1.30;99.90;;;;;;5048681;28;20048;-57
2022/12/07 08:38:33;;;;;;;5.57;0.52;;;1.20;99.90;;;;;;5048547;28;20037;-56
2022/12/07 08:40:59;;;;;;;7.97;0.50;;;1.20;99.90;;;;;;5048514;28;20049;-57
2022/12/07 08:43:25;;;;;;;8.55;0.40;;;1.20;99.90;;;;;;5048874;28;20047;-56
2022/12/07 08:46:14;;;;;;;13.02;0.80;;;1.20;99.90;;;;;;5048636;28;20049;-56
2022/12/07 08:48:55;;;;;;;7.15;0.85;;;1.30;99.90;;;;;;5049174;28;20060;-56
2022/12/07 08:51:22;;;;;;;9.43;0.98;;;1.30;99.90;;;;;;5049044;28;20076;-57
2022/12/07 08:53:49;;;;;;;6.30;0.55;;;1.30;99.90;;;;;;5049360;28;20051;-56
2022/12/07 08:56:16;;;;;;;7.78;0.73;;;1.40;99.90;;;;;;5048907;28;20037;-57
2022/12/07 08:58:42;;;;;;;12.30;1.30;;;1.40;99.90;;;;;;5048868;28;20526;-57
2022/12/07 09:01:08;;;;;;;8.15;0.63;;;1.50;99.90;;;;;;5046926;28;20053;-57
2022/12/07 09:03:34;;;;;;;12.73;1.20;;;1.60;99.90;;;;;;5048769;28;20055;-57
2022/12/07 09:06:00;;;;;;;9.07;1.00;;;1.70;99.90;;;;;;5063349;28;20207;-56
2022/12/07 09:08:55;;;;;;;13.73;2.60;;;1.70;99.90;;;;;;5048552;28;20084;-56
2022/12/07 09:11:21;;;;;;;11.80;1.48;;;1.90;99.90;;;;;;5047448;28;20140;-56
2022/12/07 09:13:47;;;;;;;10.48;1.10;;;1.90;99.90;;;;;;5047899;28;20120;-56
2022/12/07 09:16:12;;;;;;;8.20;1.17;;;2.00;99.90;;;;;;5047458;28;20032;-56
2022/12/07 09:18:38;;;;;;;12.95;1.73;;;2.10;99.90;;;;;;5047926;28;20053;-56
2022/12/07 09:21:04;;;;;;;14.00;1.50;;;2.10;99.90;;;;;;5047999;28;20049;-57
2022/12/07 09:23:30;;;;;;;11.23;1.50;;;2.30;99.90;;;;;;5039603;28;20091;-56
2022/12/07 09:26:00;;;;;;;13.18;1.33;;;2.20;99.90;;;;;;5066137;28;20072;-57
2022/12/07 09:28:26;;;;;;;15.18;1.63;;;2.40;99.90;;;;;;5065930;28;20127;-56
2022/12/07 09:30:51;;;;;;;14.50;1.40;;;2.40;99.90;;;;;;5064506;28;20098;-57
2022/12/07 09:33:17;;;;;;;14.85;1.42;;;2.40;99.90;;;;;;5064240;28;20510;-57
2022/12/07 09:35:47;;;;;;;12.82;1.80;;;2.50;99.90;;;;;;5065897;28;20527;-58
2022/12/07 09:38:13;;;;;;;13.35;1.55;;;2.60;99.90;;;;;;5066963;28;20434;-57
2022/12/07 09:40:40;;;;;;;10.63;1.27;;;2.60;99.90;;;;;;5064664;28;20075;-57
2022/12/07 09:43:15;;;;;;;10.98;1.73;;;2.70;99.90;;;;;;5065553;28;20052;-57
2022/12/07 09:45:41;;;;;;;12.20;1.40;;;2.80;99.90;;;;;;5065680;28;20048;-57
2022/12/07 09:48:36;;;;;;;4.78;0.90;;;2.90;99.90;;;;;;5065197;28;20040;-57
2022/12/07 09:51:11;;;;;;;11.30;1.77;;;2.90;99.90;;;;;;5064611;28;20058;-57
2022/12/07 09:53:38;;;;;;;19.52;1.40;;;3.00;99.90;;;;;;5065875;28;20512;-56
2022/12/07 09:56:05;;;;;;;8.05;0.90;;;3.10;99.90;;;;;;5065356;28;20080;-57
2022/12/07 09:58:32;;;;;;;13.88;1.42;;;3.30;99.90;;;;;;5047631;28;20048;-57
2022/12/07 10:01:07;;;;;;;8.10;1.30;;;3.50;99.90;;;;;;5064014;28;20443;-57
2022/12/07 10:03:38;;;;;;;8.23;1.52;;;3.70;99.90;;;;;;5065480;28;20051;-45
2022/12/07 10:06:05;;;;;;;13.93;1.13;;;3.80;99.90;;;;;;5059198;28;20131;-46
2022/12/07 10:08:31;;;;;;;15.15;1.10;;;4.00;99.90;;;;;;5062602;28;20078;-45
2022/12/07 10:10:57;;;;;;;8.88;1.63;;;4.30;99.90;;;;;;5064828;28;20045;-56
2022/12/07 10:13:38;;;;;;;16.27;1.92;;;4.20;99.90;;;;;;5080347;28;20401;-56
2022/12/07 10:16:05;;;;;;;7.38;1.10;;;4.20;99.90;;;;;;5065393;28;20036;-52
2022/12/07 10:18:41;;;;;;;10.10;1.38;;;4.20;99.90;;;;;;5065157;28;20475;-48
2022/12/07 10:21:26;;;;;;;14.05;1.20;;;4.20;99.90;;;;;;5064979;28;20048;-50
2022/12/07 10:24:04;;;;;;;14.82;1.38;;;4.20;99.90;;;;;;5056340;28;20048;-51
2022/12/07 10:26:46;;;;;;;11.20;1.27;;;4.00;99.90;;;;;;5064631;28;20082;-49
2022/12/07 10:29:21;;;;;;;8.27;0.98;;;3.90;99.90;;;;;;5064658;28;20052;-48
2022/12/07 10:31:56;;;;;;;7.75;1.00;;;3.90;99.90;;;;;;5064651;28;20048;-58
2022/12/07 10:34:25;;;;;;;8.45;1.42;;;5.80;99.90;;;;;;5062550;28;20050;-58
2022/12/07 10:36:53;;;;;;;8.77;1.60;;;3.80;99.90;;;;;;5064138;28;20049;-58
2022/12/07 10:39:23;;;;;;;8.60;1.20;;;4.00;99.90;;;;;;5063830;28;20040;-58
2022/12/07 10:42:02;;;;;;;9.88;1.02;;;4.00;99.90;;;;;;5063929;28;20055;-58
2022/12/07 10:44:34;;;;;;;8.77;1.08;;;4.00;99.90;;;;;;5079866;28;20060;-58
2022/12/07 10:47:05;;;;;;;4.35;0.73;;;4.00;99.90;;;;;;5079776;28;20493;-58
2022/12/07 10:49:31;;;;;;;9.68;0.93;;;4.00;99.90;;;;;;5064298;28;20056;-50
2022/12/07 10:52:26;;;;;;;11.48;1.20;;;4.00;99.90;;;;;;5045895;28;20043;-60
2022/12/07 10:55:01;;;;;;;10.75;0.88;;;4.10;99.90;;;;;;5064177;28;20037;-52
2022/12/07 10:57:33;;;;;;;6.63;0.70;;;4.10;99.90;;;;;;5063960;28;20040;-55
2022/12/07 11:00:24;;;;;;;3.63;0.47;;;4.10;99.90;;;;;;5064115;28;20390;-54
2022/12/07 11:03:05;;;;;;;5.00;0.88;;;4.30;99.90;;;;;;5064976;28;20226;-55
2022/12/07 11:05:42;;;;;;;10.15;0.73;;;4.30;99.90;;;;;;5062160;28;20490;-58
2022/12/07 11:08:39;;;;;;;13.82;0.70;;;4.40;99.90;;;;;;5061964;28;20080;-63
2022/12/07 11:11:33;;;;;;;5.72;0.45;;;4.50;99.90;;;;;;5063377;28;20078;-56
2022/12/07 11:14:27;;;;;;;9.13;0.40;;;4.40;99.90;;;;;;5079099;28;20055;-57
2022/12/07 11:16:57;;;;;;;4.53;0.40;;;4.30;99.90;;;;;;5063904;28;20056;-56
2022/12/07 11:19:51;;;;;;;6.35;0.40;;;4.10;99.90;;;;;;5079138;28;20742;-59
2022/12/07 11:22:41;;;;;;;7.72;0.68;;;4.10;99.90;;;;;;5078843;28;20044;-57
2022/12/07 11:25:34;;;;;;;9.98;0.50;;;4.10;99.90;;;;;;5053342;28;20056;-50
2022/12/07 11:28:28;;;;;;;7.75;0.65;;;4.00;99.90;;;;;;5064579;28;20465;-51
2022/12/07 11:31:32;;;;;;;6.50;0.93;;;4.10;99.90;;;;;;5064059;28;20043;-51
2022/12/07 11:34:32;;;;;;;8.30;0.90;;;4.00;99.90;;;;;;5063941;28;20057;-52
2022/12/07 11:37:04;;;;;;;10.45;0.88;;;4.10;99.90;;;;;;5064277;28;20048;-52
2022/12/07 11:39:47;;;;;;;9.35;0.70;;;4.10;99.90;;;;;;5063929;28;20252;-50
2022/12/07 11:42:42;;;;;;;9.30;1.98;;;4.10;99.90;;;;;;5064411;28;20052;-52
2022/12/07 11:45:41;;;;;;;10.95;1.77;;;4.20;99.90;;;;;;5064070;28;20056;-45
2022/12/07 11:48:30;;;;;;;5.53;0.80;;;4.20;99.90;;;;;;5066585;28;20410;-46
2022/12/07 11:51:00;;;;;;;8.55;0.80;;;4.20;99.90;;;;;;5068257;28;20044;-47
2022/12/07 11:53:47;;;;;;;7.43;0.65;;;4.10;99.90;;;;;;5068127;28;20082;-44
2022/12/07 11:56:19;;;;;;;4.18;0.25;;;4.10;99.90;;;;;;5068154;28;20080;-45
2022/12/07 11:58:51;;;;;;;3.50;0.20;;;4.00;99.90;;;;;;5068067;28;20086;-44
2022/12/07 12:01:39;;;;;;;2.83;0.30;;;3.90;99.90;;;;;;5068121;28;20056;-46
2022/12/07 12:04:10;;;;;;;4.10;0.15;;;3.80;99.90;;;;;;5068039;28;20048;-48
2022/12/07 12:06:43;;;;;;;3.85;0.30;;;3.80;99.90;;;;;;5067329;28;20528;-45
2022/12/07 12:09:35;;;;;;;2.75;0.20;;;3.70;99.90;;;;;;5067769;28;20040;-46
2022/12/07 12:12:19;;;;;;;2.87;0.20;;;3.80;99.90;;;;;;5066023;28;20060;-46
2022/12/07 12:15:18;;;;;;;5.80;0.40;;;3.80;99.90;;;;;;5067301;28;20352;-48
2022/12/07 12:18:15;;;;;;;4.18;0.57;;;3.80;99.90;;;;;;5067475;28;20044;-44
2022/12/07 12:20:46;;;;;;;3.65;0.20;;;3.90;99.90;;;;;;5067412;28;20047;-44
2022/12/07 12:23:23;;;;;;;1.10;0.10;;;4.00;99.90;;;;;;5067337;28;20146;-45
2022/12/07 12:25:58;;;;;;;3.50;0.13;;;4.00;99.90;;;;;;5067434;28;20044;-46
2022/12/07 12:28:29;;;;;;;2.13;0.15;;;4.20;99.90;;;;;;5067282;28;20053;-44
2022/12/07 12:31:27;;;;;;;4.45;0.20;;;4.10;99.90;;;;;;5067257;28;20484;-48
2022/12/07 12:33:58;;;;;;;5.28;0.20;;;4.00;99.90;;;;;;5047075;28;20135;-52
2022/12/07 12:36:26;;;;;;;1.50;0.38;;;4.00;99.90;;;;;;5067361;28;20395;-52
2022/12/07 12:38:58;;;;;;;3.00;0.20;;;4.00;99.90;;;;;;5066939;28;20041;-52
2022/12/07 12:44:19;;;;;;;5.95;0.40;;;3.90;99.90;;;;;;5067090;28;20081;-52
2022/12/07 12:46:45;;;;;;;5.88;0.40;;;3.90;99.90;;;;;;5066828;28;20073;-52
2022/12/07 12:49:19;;;;;;;5.40;0.28;;;3.80;99.90;;;;;;5067264;28;20102;-52
2022/12/07 12:51:50;;;;;;;4.57;0.50;;;3.70;99.90;;;;;;5066640;28;20045;-53
2022/12/07 12:54:22;;;;;;;7.35;1.75;;;3.60;99.90;;;;;;5066892;28;20048;-53
2022/12/07 12:57:06;;;;;;;4.57;0.30;;;3.80;99.90;;;;;;5065855;28;20044;-53
2022/12/07 12:59:42;;;;;;;5.88;0.35;;;3.80;99.90;;;;;;5066017;28;20054;-53
2022/12/07 13:02:22;;;;;;;7.13;0.47;;;3.10;99.90;;;;;;5066008;28;20049;-53
2022/12/07 13:05:09;;;;;;;9.20;1.15;;;3.30;99.90;;;;;;5066566;28;20052;-49
2022/12/07 13:07:47;;;;;;;5.38;0.40;;;3.30;99.90;;;;;;5066458;28;20186;-51
2022/12/07 13:10:30;;;;;;;7.07;0.80;;;3.30;99.90;;;;;;5066807;28;20059;-53
2022/12/07 13:13:11;;;;;;;5.90;1.05;;;3.40;99.90;;;;;;5066698;28;20048;-52
2022/12/07 13:15:45;;;;;;;7.03;0.70;;;3.50;99.90;;;;;;5066694;28;20036;-49
2022/12/07 13:18:31;;;;;;;6.32;0.93;;;3.50;99.90;;;;;;5066436;28;20471;-52
2022/12/07 13:21:08;;;;;;;8.98;0.80;;;3.40;99.90;;;;;;5062468;28;20048;-50
2022/12/07 13:23:43;;;;;;;7.68;0.98;;;3.50;99.90;;;;;;5066718;28;20051;-54